Time;durP1;ratioP1;P1;durP2;ratioP2;P2;SDS_P1;SDS_P2;PMS_P1;PMS_P2;Temp;Humidity;BMP_temperature;BMP_pressure;BME280_temperature;BME280_humidity;BME280_pressure;Samples;Min_cycle;Max_cycle;Signal;HPM_P1;HPM_P2
2022/06/10 00:01:37;;;;;;;11.77;3.22;;;;;;;12.49;79.13;102003.41;5012004;28;20056;-56
2022/06/10 00:04:02;;;;;;;13.23;4.57;;;;;;;12.44;80.05;101996.66;5016159;28;20473;-56
2022/06/10 00:06:27;;;;;;;11.05;3.90;;;;;;;12.44;79.97;102000.19;5015718;28;20034;-56
2022/06/10 00:08:53;;;;;;;12.23;3.97;;;;;;;12.42;79.46;102004.75;5009249;28;20042;-56
2022/06/10 00:11:18;;;;;;;16.25;5.07;;;;;;;12.41;79.73;102000.41;5010818;28;20026;-56
2022/06/10 00:13:46;;;;;;;9.95;3.58;;;;;;;12.39;79.77;101997.84;5015992;28;20110;-56
2022/06/10 00:16:12;;;;;;;11.32;3.72;;;;;;;12.42;80.60;102001.25;5009999;28;20060;-55
2022/06/10 00:18:38;;;;;;;12.15;3.72;;;;;;;12.35;80.19;102001.63;5015728;28;20060;-55
2022/06/10 00:21:07;;;;;;;13.52;3.97;;;;;;;12.35;80.70;102001.63;5015666;28;20470;-56
2022/06/10 00:23:32;;;;;;;10.40;3.90;;;;;;;12.36;80.07;101998.03;5008549;28;20362;-56
2022/06/10 00:25:57;;;;;;;9.27;3.67;;;;;;;12.37;80.52;101997.09;5015453;28;20058;-56
2022/06/10 00:28:23;;;;;;;13.23;4.30;;;;;;;12.34;80.92;101994.63;5013664;28;20041;-56
2022/06/10 00:30:49;;;;;;;14.20;4.05;;;;;;;12.35;80.95;101993.66;5014782;28;20034;-55
2022/06/10 00:33:15;;;;;;;9.77;4.20;;;;;;;12.36;80.97;101997.19;5008825;28;20050;-55
2022/06/10 00:35:41;;;;;;;9.30;3.78;;;;;;;12.36;81.03;101994.53;5011622;28;20520;-54
2022/06/10 00:38:07;;;;;;;14.52;4.00;;;;;;;12.35;81.33;101998.97;5014723;28;20026;-55
2022/06/10 00:40:37;;;;;;;13.35;4.20;;;;;;;12.35;81.74;101993.66;5009498;28;20025;-55
2022/06/10 00:43:03;;;;;;;11.60;4.05;;;;;;;12.33;81.39;101990.22;5014646;28;20030;-55
2022/06/10 00:46:11;;;;;;;8.85;3.75;;;;;;;12.41;80.00;102003.06;5014776;28;20503;-56
2022/06/10 00:48:44;;;;;;;13.00;3.75;;;;;;;12.37;81.01;101991.75;4993507;28;20038;-55
2022/06/10 00:51:21;;;;;;;11.45;3.53;;;;;;;12.35;80.71;101988.31;5009664;28;20117;-56
2022/06/10 00:53:52;;;;;;;11.70;4.13;;;;;;;12.37;81.89;101986.44;5013338;28;20030;-56
2022/06/10 00:56:22;;;;;;;13.32;4.15;;;;;;;12.38;81.75;101984.59;5008384;28;20065;-55
2022/06/10 00:59:10;;;;;;;12.88;3.78;;;;;;;12.40;81.43;101983.53;5015162;28;20536;-56
2022/06/10 01:01:37;;;;;;;11.07;3.87;;;;;;;12.38;81.76;101982.78;5009554;28;20464;-55
2022/06/10 01:04:04;;;;;;;12.70;3.70;;;;;;;12.43;81.44;101982.50;5014178;28;20037;-56
2022/06/10 01:06:29;;;;;;;10.75;4.05;;;;;;;12.45;81.64;101990.38;5010742;28;20481;-56
2022/06/10 01:08:57;;;;;;;10.75;3.85;;;;;;;12.46;81.66;101987.63;5014906;28;20076;-56
2022/06/10 01:11:51;;;;;;;14.18;3.90;;;;;;;12.51;80.68;101990.84;5006542;28;20029;-56
2022/06/10 01:14:41;;;;;;;10.55;4.28;;;;;;;12.51;81.00;101992.66;5014763;28;20033;-56
2022/06/10 01:17:32;;;;;;;11.85;4.07;;;;;;;12.52;81.00;101989.00;5013357;28;20040;-56
2022/06/10 01:20:19;;;;;;;13.15;4.07;;;;;;;12.56;81.33;101993.19;5014558;28;20022;-55
2022/06/10 01:22:57;;;;;;;10.55;3.63;;;;;;;12.55;81.33;101989.66;5014850;28;20033;-56
2022/06/10 01:25:37;;;;;;;9.10;3.28;;;;;;;12.57;82.05;101987.78;5011583;28;20049;-55
2022/06/10 01:28:09;;;;;;;14.15;3.55;;;;;;;12.61;81.21;101995.53;5014875;28;20028;-55
2022/06/10 01:31:04;;;;;;;12.38;3.35;;;;;;;12.63;80.84;101988.31;5012842;28;20034;-56
2022/06/10 01:33:58;;;;;;;17.42;4.00;;;;;;;12.64;80.84;101988.22;5014457;28;20049;-56
2022/06/10 01:37:00;;;;;;;9.45;3.00;;;;;;;12.65;81.33;101992.56;5002365;28;20136;-56
2022/06/10 01:39:45;;;;;;;13.02;3.47;;;;;;;12.65;81.26;101997.91;5010714;28;20401;-56
2022/06/10 01:42:29;;;;;;;10.52;3.22;;;;;;;12.66;80.86;101983.63;5007955;28;20032;-55
2022/06/10 01:45:09;;;;;;;13.43;3.80;;;;;;;12.68;81.16;101989.69;5009399;28;20084;-56
2022/06/10 01:47:53;;;;;;;10.63;3.13;;;;;;;12.71;80.90;101993.97;5011627;28;20025;-56
2022/06/10 01:50:40;;;;;;;10.85;3.20;;;;;;;12.75;80.12;101995.47;5014042;28;20524;-56
2022/06/10 01:53:20;;;;;;;9.98;3.38;;;;;;;12.74;80.59;101991.97;5014042;28;20048;-55
2022/06/10 01:55:54;;;;;;;11.20;3.28;;;;;;;12.74;81.12;101981.28;5003819;28;20493;-56
2022/06/10 01:58:26;;;;;;;10.68;3.20;;;;;;;12.75;81.08;101991.00;5013681;28;20030;-56
2022/06/10 02:01:05;;;;;;;11.43;3.13;;;;;;;12.80;80.67;101980.00;5013768;28;20452;-56
2022/06/10 02:03:38;;;;;;;7.83;3.07;;;;;;;12.80;80.74;101984.50;5013024;28;20477;-56
2022/06/10 02:06:09;;;;;;;13.18;3.70;;;;;;;12.80;81.18;101990.69;5014125;28;20648;-56
2022/06/10 02:08:44;;;;;;;9.15;3.00;;;;;;;12.82;81.02;101980.75;5008288;28;20034;-56
2022/06/10 02:11:15;;;;;;;12.35;3.10;;;;;;;12.86;81.07;101998.28;5013724;28;20044;-56
2022/06/10 02:13:52;;;;;;;11.88;2.90;;;;;;;12.86;80.74;102000.94;5012435;28;20032;-55
2022/06/10 02:16:22;;;;;;;12.35;3.38;;;;;;;12.87;81.55;101994.66;5007313;28;20021;-56
2022/06/10 02:19:13;;;;;;;11.93;3.17;;;;;;;12.92;80.54;101989.00;5000604;28;20062;-56
2022/06/10 02:21:45;;;;;;;12.85;3.40;;;;;;;12.91;81.56;101988.16;4994113;28;20073;-55
2022/06/10 02:24:25;;;;;;;8.57;2.90;;;;;;;12.93;80.67;101991.56;4995390;28;20497;-55
2022/06/10 02:26:52;;;;;;;11.57;3.15;;;;;;;12.94;81.04;101997.75;4994179;28;20092;-55
2022/06/10 02:29:29;;;;;;;9.40;3.10;;;;;;;12.97;80.58;102000.19;4997237;28;20052;-55
2022/06/10 02:31:57;;;;;;;12.23;3.30;;;;;;;12.96;81.14;101996.69;5005859;28;20088;-55
2022/06/10 02:34:23;;;;;;;9.05;2.83;;;;;;;12.99;81.25;101997.44;5006572;28;20384;-55
2022/06/10 02:36:58;;;;;;;8.60;2.75;;;;;;;12.99;81.65;102005.41;5013118;28;20030;-56
2022/06/10 02:39:31;;;;;;;8.57;2.85;;;;;;;13.00;81.57;102005.31;5013247;28;20044;-55
2022/06/10 02:42:19;;;;;;;12.15;2.55;;;;;;;13.04;80.94;102011.28;5013302;28;20096;-55
2022/06/10 02:45:07;;;;;;;10.75;3.00;;;;;;;13.06;80.81;102010.25;5008109;28;20116;-56
2022/06/10 02:48:10;;;;;;;10.77;3.00;;;;;;;13.09;80.75;102018.03;5012996;28;20034;-55
2022/06/10 02:50:37;;;;;;;9.75;2.92;;;;;;;13.10;81.06;102010.88;5013147;28;20030;-56
2022/06/10 02:53:04;;;;;;;11.25;3.28;;;;;;;13.11;81.18;102008.13;5007513;28;20022;-55
2022/06/10 02:55:30;;;;;;;12.63;3.40;;;;;;;13.11;81.25;102008.13;5013249;28;20039;-55
2022/06/10 03:03:53;;;;;;;7.25;3.03;;;;;;;13.18;80.92;102008.53;4996406;28;20041;-55
2022/06/10 03:06:37;;;;;;;10.13;2.40;;;;;;;13.21;81.11;102013.66;5002730;28;20026;-55
2022/06/10 03:09:17;;;;;;;11.73;3.05;;;;;;;13.21;80.63;102019.00;4994927;28;20034;-55
2022/06/10 03:11:51;;;;;;;10.95;2.83;;;;;;;13.22;80.82;102014.53;5010597;28;20041;-55
2022/06/10 03:14:47;;;;;;;11.60;2.83;;;;;;;13.24;80.26;102009.91;5012395;28;20366;-56
2022/06/10 03:17:31;;;;;;;10.93;3.30;;;;;;;13.27;81.07;102025.72;4999684;28;20030;-56
2022/06/10 03:20:18;;;;;;;12.25;3.28;;;;;;;13.28;81.21;102020.28;4999306;28;20037;-56
2022/06/10 03:22:56;;;;;;;10.82;2.90;;;;;;;13.28;81.19;102028.28;5005222;28;20058;-55
2022/06/10 03:25:35;;;;;;;9.18;2.72;;;;;;;13.29;81.15;102031.81;5008885;28;20452;-56
2022/06/10 03:28:12;;;;;;;13.90;2.95;;;;;;;13.30;81.55;102026.34;5005778;28;20041;-56
2022/06/10 03:30:43;;;;;;;8.80;3.00;;;;;;;13.30;81.09;102037.03;5010606;28;20037;-55
2022/06/10 03:33:14;;;;;;;6.43;2.40;;;;;;;13.32;81.19;102036.97;5008798;28;20037;-55
2022/06/10 03:35:46;;;;;;;11.02;3.35;;;;;;;13.34;81.37;102037.72;5002878;28;20108;-55
2022/06/10 03:38:12;;;;;;;11.38;2.88;;;;;;;13.34;81.28;102035.06;5012091;28;20446;-56
2022/06/10 03:40:39;;;;;;;9.40;2.38;;;;;;;13.36;81.61;102029.63;5005647;28;20053;-56
2022/06/10 03:43:07;;;;;;;15.60;3.33;;;;;;;13.38;82.41;102023.19;5012156;28;20076;-55
2022/06/10 03:45:41;;;;;;;11.23;2.63;;;;;;;13.41;81.88;102022.16;5012434;28;20022;-56
2022/06/10 03:48:07;;;;;;;9.43;3.22;;;;;;;13.40;82.42;102021.28;5006894;28;20030;-56
2022/06/10 03:50:38;;;;;;;12.75;3.30;;;;;;;13.41;82.58;102017.66;5000152;28;20030;-56
2022/06/10 03:53:04;;;;;;;12.40;2.70;;;;;;;13.41;82.12;102014.97;5012200;28;20084;-55
2022/06/10 03:55:29;;;;;;;10.95;2.75;;;;;;;13.42;82.19;102019.38;5009441;28;20374;-56
2022/06/10 03:57:54;;;;;;;11.70;3.00;;;;;;;13.42;82.81;102034.50;5012188;28;20049;-54
2022/06/10 04:00:24;;;;;;;12.43;3.22;;;;;;;13.42;81.72;102034.50;5010677;28;20037;-56
2022/06/10 04:02:49;;;;;;;8.10;2.60;;;;;;;13.45;82.42;102039.63;5012550;28;20034;-56
2022/06/10 04:05:15;;;;;;;12.50;2.95;;;;;;;13.46;82.29;102044.88;5001722;28;20496;-55
2022/06/10 04:07:41;;;;;;;9.45;2.80;;;;;;;13.48;81.96;102034.09;5005105;28;20034;-56
2022/06/10 04:10:09;;;;;;;10.20;2.88;;;;;;;13.49;82.52;102033.97;5005522;28;20041;-55
2022/06/10 04:12:36;;;;;;;10.27;2.78;;;;;;;13.50;82.54;102037.50;5008792;28;20378;-54
2022/06/10 04:15:02;;;;;;;16.40;3.17;;;;;;;13.50;82.92;102035.69;5012394;28;20037;-56
2022/06/10 04:17:27;;;;;;;12.35;2.72;;;;;;;13.54;82.63;102040.81;5011596;28;20026;-56
2022/06/10 04:19:52;;;;;;;8.80;2.83;;;;;;;13.56;82.81;102036.22;5012095;28;20033;-56
2022/06/10 04:22:18;;;;;;;14.27;3.37;;;;;;;13.58;83.76;102050.31;5006317;28;20378;-55
2022/06/10 04:24:43;;;;;;;10.65;2.83;;;;;;;13.59;83.13;102052.00;5011755;28;20273;-55
2022/06/10 04:27:08;;;;;;;8.45;2.58;;;;;;;13.61;83.68;102050.13;4997380;28;20141;-54
2022/06/10 04:29:34;;;;;;;13.63;2.93;;;;;;;13.64;83.32;102049.91;5003599;28;20026;-54
2022/06/10 04:31:59;;;;;;;6.05;2.10;;;;;;;13.65;83.30;102046.25;4993720;28;20663;-55
2022/06/10 04:34:24;;;;;;;11.80;2.92;;;;;;;13.67;84.06;102055.00;4994212;28;20026;-56
2022/06/10 04:36:50;;;;;;;7.28;2.40;;;;;;;13.66;83.76;102051.47;4997190;28;20374;-55
2022/06/10 04:39:15;;;;;;;9.13;2.67;;;;;;;13.69;83.30;102047.75;5002570;28;20043;-54
2022/06/10 04:41:40;;;;;;;10.23;2.75;;;;;;;13.71;83.91;102053.00;5005074;28;20516;-55
2022/06/10 04:44:06;;;;;;;8.15;2.55;;;;;;;13.72;83.94;102047.50;5014566;28;20030;-56
2022/06/10 04:46:37;;;;;;;8.73;2.55;;;;;;;13.73;83.80;102054.56;5012110;28;20037;-56
2022/06/10 04:49:03;;;;;;;8.68;2.50;;;;;;;13.75;83.90;102052.63;4978664;28;20027;-56
2022/06/10 04:51:29;;;;;;;7.35;2.80;;;;;;;13.76;83.51;102056.19;5015221;28;20080;-56
2022/06/10 04:53:54;;;;;;;11.13;3.22;;;;;;;13.79;83.55;102056.81;5014566;28;20036;-56
2022/06/10 04:56:20;;;;;;;9.40;3.17;;;;;;;13.80;83.34;102061.19;5002982;28;20030;-56
2022/06/10 04:58:45;;;;;;;11.90;3.53;;;;;;;13.82;83.14;102053.94;5014908;28;20045;-56
2022/06/10 05:01:11;;;;;;;15.55;2.90;;;;;;;13.85;82.95;102053.69;5012610;28;20032;-56
2022/06/10 05:03:37;;;;;;;10.13;2.60;;;;;;;13.85;83.05;102051.03;5003529;28;20033;-56
2022/06/10 05:06:03;;;;;;;9.63;3.15;;;;;;;13.88;83.09;102048.13;5001084;28;20022;-55
2022/06/10 05:08:29;;;;;;;8.20;2.90;;;;;;;13.88;83.10;102042.78;5014602;28;20121;-54
2022/06/10 05:10:54;;;;;;;12.38;2.83;;;;;;;13.91;82.71;102052.41;5011981;28;20100;-56
2022/06/10 05:13:20;;;;;;;8.80;2.70;;;;;;;13.94;82.49;102051.31;5014500;28;20384;-56
2022/06/10 05:15:47;;;;;;;11.93;3.33;;;;;;;13.97;82.44;102053.78;5009636;28;20285;-55
2022/06/10 05:18:15;;;;;;;8.43;2.90;;;;;;;13.98;83.14;102051.00;5010486;28;20392;-56
2022/06/10 05:20:42;;;;;;;8.88;2.92;;;;;;;14.01;83.39;102044.59;5014609;28;20033;-55
2022/06/10 05:23:09;;;;;;;8.63;2.95;;;;;;;14.02;82.95;102041.81;5014144;28;20030;-56
2022/06/10 05:25:35;;;;;;;10.27;2.70;;;;;;;14.05;83.02;102036.25;5013312;28;20108;-55
2022/06/10 05:28:01;;;;;;;14.18;2.92;;;;;;;14.08;82.99;102032.50;5012887;28;20018;-56
2022/06/10 05:30:30;;;;;;;9.50;2.58;;;;;;;14.12;83.04;102034.00;5011012;28;20489;-56
2022/06/10 05:32:56;;;;;;;13.10;2.85;;;;;;;14.17;82.53;102034.50;5007640;28;20034;-55
2022/06/10 05:35:22;;;;;;;12.05;3.10;;;;;;;14.20;83.51;102031.59;5010974;28;20018;-55
2022/06/10 05:37:48;;;;;;;9.82;2.88;;;;;;;14.26;82.78;102038.31;5005825;28;20030;-55
2022/06/10 05:40:14;;;;;;;13.85;3.40;;;;;;;14.31;82.46;102033.50;4999170;28;20501;-55
2022/06/10 05:42:40;;;;;;;12.25;3.05;;;;;;;14.36;82.98;102033.16;5012538;28;20018;-55
2022/06/10 05:45:07;;;;;;;11.25;2.63;;;;;;;14.41;82.25;102039.03;5006704;28;20030;-55
2022/06/10 05:47:34;;;;;;;12.38;2.70;;;;;;;14.47;82.57;102035.03;5012046;28;20366;-56
2022/06/10 05:50:04;;;;;;;14.65;3.03;;;;;;;14.51;82.67;102031.19;5013956;28;20026;-55
2022/06/10 05:52:31;;;;;;;10.48;2.60;;;;;;;14.56;82.86;102029.84;5013691;28;20030;-55
2022/06/10 05:54:59;;;;;;;12.02;2.40;;;;;;;14.61;81.99;102030.38;5009128;28;20042;-56
2022/06/10 05:57:24;;;;;;;10.30;3.00;;;;;;;14.68;81.58;102033.47;5009511;28;20025;-56
2022/06/10 05:59:52;;;;;;;10.02;2.67;;;;;;;14.74;82.45;102035.69;5011015;28;20033;-56
2022/06/10 06:02:18;;;;;;;11.55;3.50;;;;;;;14.82;81.71;102029.72;5008231;28;20029;-56
2022/06/10 06:04:43;;;;;;;6.38;2.53;;;;;;;14.89;82.97;102038.16;5007425;28;20025;-54
2022/06/10 06:07:10;;;;;;;13.25;2.60;;;;;;;14.96;81.55;102031.38;4992698;28;20481;-56
2022/06/10 06:09:36;;;;;;;12.20;2.67;;;;;;;15.02;80.88;102038.06;5003870;28;20109;-56
2022/06/10 06:12:01;;;;;;;11.13;2.90;;;;;;;15.07;81.35;102036.78;5007644;28;20405;-56
2022/06/10 06:14:27;;;;;;;14.05;2.95;;;;;;;15.14;81.02;102039.81;5012173;28;20380;-55
2022/06/10 06:16:59;;;;;;;11.48;3.03;;;;;;;15.21;80.15;102043.72;5010233;28;20042;-56
2022/06/10 06:19:26;;;;;;;9.98;2.67;;;;;;;15.26;79.46;102046.03;5012374;28;20030;-56
2022/06/10 06:21:52;;;;;;;8.15;2.30;;;;;;;15.34;80.08;102040.97;5010748;28;20069;-55
2022/06/10 06:24:17;;;;;;;9.60;2.40;;;;;;;15.40;79.90;102050.31;5012695;28;20017;-58
2022/06/10 06:26:42;;;;;;;9.88;2.33;;;;;;;15.44;79.70;102051.81;5005424;28;20046;-55
2022/06/10 06:29:08;;;;;;;11.50;2.65;;;;;;;15.49;79.28;102054.97;5011788;28;20057;-55
2022/06/10 06:31:34;;;;;;;11.02;2.45;;;;;;;15.53;78.97;102061.78;5008281;28;20033;-55
2022/06/10 06:33:59;;;;;;;8.80;2.08;;;;;;;15.55;78.94;102065.19;4995804;28;20046;-55
2022/06/10 06:36:27;;;;;;;7.03;2.25;;;;;;;15.62;79.60;102070.91;4995758;28;20034;-55
2022/06/10 06:38:52;;;;;;;9.27;2.17;;;;;;;15.65;78.48;102062.63;4995614;28;20037;-54
2022/06/10 06:41:19;;;;;;;9.55;2.00;;;;;;;15.68;78.44;102063.25;4992754;28;20045;-56
2022/06/10 06:43:45;;;;;;;10.80;2.28;;;;;;;15.72;78.17;102066.53;4994572;28;20113;-54
2022/06/10 06:46:16;;;;;;;9.43;2.13;;;;;;;15.79;78.76;102069.63;5004331;28;20101;-56
2022/06/10 06:48:43;;;;;;;11.23;2.33;;;;;;;15.84;78.58;102068.28;5008696;28;20125;-56
2022/06/10 06:51:09;;;;;;;8.63;2.10;;;;;;;15.87;78.69;102069.84;5012222;28;20080;-56
2022/06/10 06:53:35;;;;;;;6.13;2.20;;;;;;;15.92;78.30;102067.69;5011411;28;20574;-56
2022/06/10 06:56:05;;;;;;;8.85;2.40;;;;;;;15.95;77.16;102078.13;5010767;28;20030;-55
2022/06/10 06:58:31;;;;;;;8.57;2.00;;;;;;;16.01;77.56;102076.81;5011634;28;20049;-55
2022/06/10 07:00:56;;;;;;;5.88;1.95;;;;;;;16.05;77.10;102071.06;5011164;28;20025;-56
2022/06/10 07:03:25;;;;;;;9.40;2.33;;;;;;;16.09;77.41;102077.88;5011692;28;20026;-53
2022/06/10 07:05:52;;;;;;;7.93;1.98;;;;;;;16.10;75.44;102078.72;5007121;28;20022;-56
2022/06/10 07:08:17;;;;;;;7.93;2.35;;;;;;;16.13;76.35;102074.97;5009844;28;20109;-55
2022/06/10 07:10:43;;;;;;;7.30;1.90;;;;;;;16.16;75.95;102069.34;5007300;28;20121;-56
2022/06/10 07:13:09;;;;;;;12.65;2.28;;;;;;;16.21;76.26;102067.16;5006258;28;20034;-55
2022/06/10 07:15:37;;;;;;;8.30;1.90;;;;;;;16.26;76.40;102067.63;5003504;28;20038;-56
2022/06/10 07:18:03;;;;;;;7.47;2.05;;;;;;;16.35;76.12;102074.06;4998399;28;20446;-56
2022/06/10 07:20:33;;;;;;;8.45;1.95;;;;;;;16.45;76.16;102072.31;4991837;28;20497;-55
2022/06/10 07:23:00;;;;;;;7.93;2.10;;;;;;;16.60;75.17;102079.13;5002427;28;20188;-55
2022/06/10 07:25:27;;;;;;;9.00;2.63;;;;;;;16.72;75.51;102079.94;4995353;28;20042;-55
2022/06/10 07:27:53;;;;;;;5.85;1.80;;;;;;;16.81;75.52;102081.00;4998775;28;20038;-55
2022/06/10 07:30:24;;;;;;;7.53;2.05;;;;;;;16.87;74.87;102074.28;4996611;28;20114;-54
2022/06/10 07:32:49;;;;;;;7.50;2.03;;;;;;;16.90;74.75;102079.41;4998387;28;20556;-56
2022/06/10 07:35:18;;;;;;;9.32;2.35;;;;;;;16.89;73.83;102083.94;4998281;28;20066;-56
2022/06/10 07:37:45;;;;;;;9.02;2.40;;;;;;;16.94;72.89;102080.88;4998655;28;20031;-56
2022/06/10 07:41:56;;;;;;;7.43;2.38;;;;;;;16.97;73.43;102085.94;4996311;28;20026;-56
2022/06/10 07:43:00;;;;;;;4.93;2.00;;;;;;;16.97;73.05;102078.78;5002777;28;20033;-55
2022/06/10 07:45:25;;;;;;;8.25;2.05;;;;;;;16.99;73.15;102079.47;4993289;28;20031;-56
2022/06/10 07:47:51;;;;;;;4.72;1.70;;;;;;;17.03;73.71;102077.38;4991021;28;20037;-56
2022/06/10 07:50:17;;;;;;;8.93;1.92;;;;;;;17.04;73.63;102073.72;4992106;28;20136;-56
2022/06/10 07:52:42;;;;;;;6.57;1.90;;;;;;;17.04;73.08;102073.72;4996059;28;20085;-55
2022/06/10 07:55:08;;;;;;;6.78;2.00;;;;;;;17.06;72.79;102073.59;5000278;28;20417;-55
2022/06/10 07:57:33;;;;;;;5.00;1.60;;;;;;;17.09;73.41;102070.66;4993594;28;20074;-56
2022/06/10 07:59:58;;;;;;;8.27;1.83;;;;;;;17.17;72.97;102070.88;5006767;28;20029;-55
2022/06/10 08:02:24;;;;;;;5.27;1.80;;;;;;;17.25;73.10;102072.88;5012392;28;20276;-55
2022/06/10 08:04:49;;;;;;;6.85;1.83;;;;;;;17.31;71.87;102075.88;5008401;28;20274;-55
2022/06/10 08:07:14;;;;;;;9.48;1.77;;;;;;;17.38;71.83;102073.53;5001998;28;20428;-56
2022/06/10 08:09:40;;;;;;;4.40;1.50;;;;;;;17.51;72.07;102076.00;4997860;28;20101;-56
2022/06/10 08:12:05;;;;;;;10.02;1.90;;;;;;;17.59;72.34;102083.41;4999825;28;20350;-56
2022/06/10 08:14:31;;;;;;;6.85;2.00;;;;;;;17.68;71.39;102074.53;5013961;28;20022;-55
2022/06/10 08:16:56;;;;;;;4.60;1.52;;;;;;;17.76;70.62;102080.94;5013604;28;20022;-55
2022/06/10 08:19:22;;;;;;;7.22;2.17;;;;;;;17.86;70.66;102088.19;5012042;28;20030;-55
2022/06/10 08:24:31;;;;;;;7.65;2.33;;;;;;;18.01;68.41;102083.34;5004290;28;20526;-55
2022/06/10 08:26:56;;;;;;;9.50;2.72;;;;;;;18.06;67.63;102089.16;5014654;28;20038;-55
2022/06/10 08:29:21;;;;;;;10.43;2.80;;;;;;;18.11;67.18;102085.06;5010650;28;20025;-55
2022/06/10 08:31:46;;;;;;;11.13;3.47;;;;;;;18.11;67.28;102086.91;5009956;28;20034;-55
2022/06/10 08:34:12;;;;;;;13.35;2.75;;;;;;;18.18;68.21;102088.06;5014089;28;20293;-55
2022/06/10 08:36:37;;;;;;;13.10;2.80;;;;;;;18.20;68.27;102090.59;5012700;28;20037;-56
2022/06/10 08:39:03;;;;;;;10.98;3.22;;;;;;;18.21;66.01;102085.09;5014004;28;20710;-56
2022/06/10 08:41:48;;;;;;;10.13;3.00;;;;;;;18.28;67.11;102085.38;5012886;28;20172;-57
2022/06/10 08:44:45;;;;;;;12.10;2.97;;;;;;;18.33;68.62;102072.38;5014978;28;20421;-56
2022/06/10 08:47:28;;;;;;;10.35;3.40;;;;;;;18.42;66.80;102071.56;5014184;28;20397;-56
2022/06/10 08:50:24;;;;;;;13.40;2.80;;;;;;;18.58;68.30;102067.47;5012668;28;20117;-56
2022/06/10 08:53:07;;;;;;;16.00;3.65;;;;;;;18.83;66.87;102056.16;5014781;28;20034;-56
2022/06/10 08:55:39;;;;;;;11.02;2.78;;;;;;;19.14;64.93;102069.47;5010760;28;20030;-56
2022/06/10 08:58:15;;;;;;;10.07;2.38;;;;;;;19.60;64.75;102061.53;5013910;28;20033;-56
2022/06/10 09:00:41;;;;;;;10.82;2.70;;;;;;;20.08;64.00;102065.91;5014674;28;20152;-56
2022/06/10 09:03:19;;;;;;;7.03;2.05;;;;;;;20.50;63.07;102062.66;5007336;28;20117;-55
2022/06/10 09:05:52;;;;;;;7.60;2.03;;;;;;;20.79;61.92;102056.22;5008597;28;20033;-56
2022/06/10 09:08:22;;;;;;;9.77;2.30;;;;;;;21.03;59.41;102054.72;5001517;28;20300;-56
2022/06/10 09:11:09;;;;;;;12.80;2.50;;;;;;;21.23;57.82;102058.94;5009489;28;20355;-56
2022/06/10 09:13:56;;;;;;;13.13;2.67;;;;;;;21.62;60.68;102057.69;5003269;28;20366;-56
2022/06/10 09:16:38;;;;;;;8.40;2.15;;;;;;;22.14;58.88;102062.13;5009660;28;20029;-57
2022/06/10 09:19:07;;;;;;;5.35;1.90;;;;;;;22.32;57.18;102062.88;5003950;28;20029;-56
2022/06/10 09:21:49;;;;;;;;;;;;;;;22.50;60.15;102062.75;5003803;28;20114;-57
2022/06/10 09:24:35;;;;;;;10.95;2.38;;;;;;;22.59;56.98;102058.19;5011499;28;19967;-56
2022/06/10 09:27:20;;;;;;;11.13;2.67;;;;;;;22.83;55.67;102065.50;5010355;28;20148;-56
2022/06/10 09:29:46;;;;;;;8.98;2.22;;;;;;;22.92;54.36;102077.16;5009194;28;20039;-56
2022/06/10 09:32:48;;;;;;;7.55;2.28;;;;;;;23.06;56.69;102076.50;5005943;28;20088;-56
2022/06/10 09:35:21;;;;;;;9.27;2.67;;;;;;;23.11;54.08;102073.28;5009717;28;20026;-55
2022/06/10 09:38:11;;;;;;;10.88;2.40;;;;;;;23.18;55.86;102071.59;5003389;28;20106;-56
2022/06/10 09:40:55;;;;;;;6.68;2.33;;;;;;;23.28;55.94;102068.69;5008001;28;20037;-57
2022/06/10 09:43:38;;;;;;;10.75;2.40;;;;;;;23.15;53.82;102066.53;4999334;28;20080;-56
2022/06/10 09:46:26;;;;;;;9.27;2.22;;;;;;;23.23;55.59;102057.53;4995505;28;20549;-56
2022/06/10 09:49:23;;;;;;;6.70;2.00;;;;;;;23.41;55.35;102071.72;5000253;28;20083;-56
2022/06/10 09:52:03;;;;;;;12.48;2.60;;;;;;;23.39;55.34;102072.91;4999830;28;20104;-56
2022/06/10 09:54:51;;;;;;;9.88;3.10;;;;;;;23.18;54.92;102071.59;4995904;28;20049;-55
2022/06/10 09:57:19;;;;;;;11.27;3.45;;;;;;;23.34;52.84;102073.44;5009199;28;20034;-56
2022/06/10 09:59:53;;;;;;;9.77;2.70;;;;;;;23.50;53.96;102066.28;5011500;28;20066;-56
2022/06/10 10:02:36;;;;;;;12.05;2.95;;;;;;;23.58;53.52;102064.41;5006664;28;20030;-56
2022/06/10 10:05:33;;;;;;;12.32;3.00;;;;;;;23.66;55.02;102071.66;5008883;28;20504;-55
2022/06/10 10:08:07;;;;;;;10.52;2.67;;;;;;;23.59;53.85;102076.94;5012376;28;20064;-55
2022/06/10 10:10:35;;;;;;;12.82;2.85;;;;;;;23.59;52.64;102074.22;5005157;28;20038;-56
2022/06/10 10:13:29;;;;;;;12.30;3.00;;;;;;;23.55;53.57;102080.16;5011434;28;20034;-55
2022/06/10 10:16:14;;;;;;;9.98;3.35;;;;;;;23.39;53.33;102078.34;5013442;28;20271;-55
2022/06/10 10:19:22;;;;;;;8.95;2.78;;;;;;;23.27;54.73;102077.84;5001092;28;20500;-55
2022/06/10 10:22:15;;;;;;;8.77;2.90;;;;;;;23.15;53.71;102065.66;5008111;28;20395;-54
2022/06/10 10:24:43;;;;;;;7.68;2.50;;;;;;;23.44;54.51;102065.13;5000158;28;20053;-56
2022/06/10 10:27:16;;;;;;;12.85;2.90;;;;;;;23.59;52.78;102065.25;4986676;28;20050;-56
2022/06/10 10:29:45;;;;;;;8.73;2.90;;;;;;;23.70;52.39;102061.28;5002247;28;20030;-56
2022/06/10 10:32:17;;;;;;;10.40;2.80;;;;;;;23.91;52.79;102058.03;5010499;28;20187;-56
2022/06/10 10:34:50;;;;;;;13.75;3.30;;;;;;;23.96;53.36;102067.31;5012714;28;20083;-56
2022/06/10 10:37:27;;;;;;;10.07;2.75;;;;;;;24.27;53.17;102054.81;5007358;28;20477;-55
2022/06/10 10:40:03;;;;;;;10.68;3.15;;;;;;;24.32;51.81;102064.09;5012691;28;20052;-55
2022/06/10 10:42:39;;;;;;;10.40;2.90;;;;;;;24.72;51.42;102050.44;5011050;28;20030;-56
2022/06/10 10:45:07;;;;;;;10.32;2.90;;;;;;;24.96;50.37;102051.25;5005855;28;20053;-55
2022/06/10 10:47:36;;;;;;;7.93;2.80;;;;;;;25.26;50.50;102049.44;5000929;28;20030;-56
2022/06/10 10:50:02;;;;;;;11.05;3.42;;;;;;;25.52;50.31;102049.03;5000843;28;20120;-56
2022/06/10 10:52:39;;;;;;;9.75;2.80;;;;;;;25.70;49.52;102053.22;5010469;28;20044;-55
2022/06/10 10:55:11;;;;;;;8.63;2.80;;;;;;;25.70;50.17;102056.81;5012713;28;20065;-55
2022/06/10 10:57:42;;;;;;;7.75;2.90;;;;;;;25.57;48.63;102054.75;4998015;28;20490;-56
2022/06/10 11:00:29;;;;;;;13.40;3.13;;;;;;;25.52;50.78;102053.63;5010501;28;20038;-55
2022/06/10 11:03:01;;;;;;;11.07;3.00;;;;;;;25.32;48.82;102056.06;5009656;28;20030;-55
2022/06/10 11:05:37;;;;;;;8.90;2.97;;;;;;;25.31;49.98;102052.47;5002411;28;20397;-55
2022/06/10 11:08:20;;;;;;;11.05;2.97;;;;;;;25.36;50.39;102050.03;5003943;28;20033;-55
2022/06/10 11:10:54;;;;;;;8.27;2.67;;;;;;;25.44;49.42;102049.13;5005638;28;20037;-55
2022/06/10 11:13:34;;;;;;;9.82;3.00;;;;;;;25.81;48.77;102048.16;5006134;28;20061;-55
2022/06/10 11:16:29;;;;;;;9.32;2.97;;;;;;;25.96;50.58;102041.88;4992926;28;20034;-56
2022/06/10 11:19:04;;;;;;;9.52;2.97;;;;;;;25.90;47.31;102048.06;4995161;28;20049;-55
2022/06/10 11:21:32;;;;;;;6.47;2.60;;;;;;;25.95;47.52;102045.63;4994234;28;20046;-55
2022/06/10 11:23:58;;;;;;;11.50;3.03;;;;;;;25.69;48.39;102052.38;4998258;28;20072;-56
2022/06/10 11:26:26;;;;;;;7.35;2.35;;;;;;;25.76;47.90;102055.19;5007150;28;20117;-55
2022/06/10 11:29:04;;;;;;;8.63;2.35;;;;;;;25.67;48.06;102055.28;5002731;28;20033;-56
2022/06/10 11:31:34;;;;;;;9.85;2.97;;;;;;;25.46;47.57;102049.75;5010416;28;20034;-56
2022/06/10 11:34:01;;;;;;;8.35;2.55;;;;;;;25.42;48.83;102049.28;5011945;28;20482;-56
2022/06/10 11:36:35;;;;;;;7.85;2.78;;;;;;;25.28;49.37;102044.69;4998007;28;20091;-55
2022/06/10 11:39:23;;;;;;;8.77;2.20;;;;;;;25.43;49.70;102042.84;5002353;28;20423;-55
2022/06/10 11:42:20;;;;;;;12.20;3.10;;;;;;;25.53;48.78;102044.41;5012014;28;20045;-56
2022/06/10 11:44:54;;;;;;;7.18;2.30;;;;;;;25.63;48.45;102036.81;5006491;28;20048;-55
2022/06/10 11:47:28;;;;;;;8.93;2.65;;;;;;;25.78;47.07;102040.38;5012646;28;20493;-55
2022/06/10 11:50:09;;;;;;;7.88;2.63;;;;;;;25.79;48.14;102025.72;5015804;28;20125;-55
2022/06/10 11:52:50;;;;;;;5.97;2.25;;;;;;;25.77;48.18;102027.78;5007381;28;20119;-55
2022/06/10 11:55:18;;;;;;;9.23;2.42;;;;;;;25.84;47.31;102027.88;5015728;28;20033;-55